< Cyclone 197211 1972 Season Cyclone 197213 >
Cyclone 197212 (ANGELA)
General InformationTrack Information on Google Maps || ResourceGoogle EarthGE AnimationAtom FeedGeoJSON
Detalied Best Track (Time Zone = UTC)
Year Month Day Hour Lat. Long. Pressure (hPa) Wind (kt) Class Image Chart
1972 2 29 00 -7.9 97.0 1004 0 0 -- --
1972 2 29 03 -8.3 97.4 1004 0 0 -- --
1972 2 29 06 -8.6 97.7 1004 0 0 -- --
1972 2 29 09 -9.0 98.1 1003 0 0 -- --
1972 2 29 12 -9.4 98.5 1003 0 0 -- --
1972 2 29 15 -9.8 98.9 1003 0 0 -- --
1972 2 29 18 -10.2 99.3 1002 0 0 -- --
1972 2 29 21 -10.5 99.6 1002 0 0 -- --
1972 3 1 00 -10.9 100.0 1002 0 0 -- --
1972 3 1 03 -11.2 100.6 1001 0 0 -- --
1972 3 1 06 -11.4 101.3 1000 0 0 -- --
1972 3 1 09 -11.6 101.9 999 0 0 -- --
1972 3 1 12 -11.9 102.5 998 0 0 -- --
1972 3 1 15 -12.2 103.1 997 0 0 -- --
1972 3 1 18 -12.4 103.7 996 0 0 -- --
1972 3 1 21 -12.6 104.4 995 0 0 -- --
1972 3 2 00 -12.8 104.9 994 0 0 -- --
1972 3 2 03 -12.9 105.6 994 0 0 -- --
1972 3 2 06 -12.9 106.2 994 0 0 -- --
1972 3 2 09 -13.0 106.8 995 0 0 -- --
1972 3 2 12 -13.0 107.4 995 0 0 -- --
1972 3 2 15 -13.1 108.0 995 0 0 -- --
1972 3 2 18 -13.1 108.7 996 0 0 -- --
1972 3 2 21 -13.2 109.3 996 0 0 -- --
1972 3 3 00 -13.2 109.8 996 0 0 -- --
< Cyclone 197211 1972 Season Cyclone 197213 >

Help